createdAt,value
2023-10-12T00:02:17.016Z,10.03
2023-10-12T00:04:44.685Z,10.04
2023-10-12T00:07:16.761Z,10.04
2023-10-12T00:09:50.180Z,10.05
2023-10-12T00:12:25.163Z,10.06
2023-10-12T00:14:56.234Z,10.07
2023-10-12T00:17:25.073Z,10.09
2023-10-12T00:19:52.386Z,10.11
2023-10-12T00:22:20.362Z,10.12
2023-10-12T00:24:47.787Z,10.13
2023-10-12T00:27:16.136Z,10.14
2023-10-12T00:29:45.706Z,10.16
2023-10-12T00:32:14.416Z,10.17
2023-10-12T00:34:47.425Z,10.18
2023-10-12T00:37:15.686Z,10.19
2023-10-12T00:39:59.577Z,10.21
2023-10-12T00:42:33.364Z,10.22
2023-10-12T00:45:20.022Z,10.22
2023-10-12T00:47:52.629Z,10.22
2023-10-12T00:50:20.603Z,10.23
2023-10-12T00:52:55.956Z,10.24
2023-10-12T00:55:36.118Z,10.27
2023-10-12T00:58:09.420Z,10.25
2023-10-12T01:00:47.412Z,10.25
2023-10-12T01:03:41.173Z,10.26
2023-10-12T01:06:22.445Z,10.26
2023-10-12T01:08:50.426Z,10.26
2023-10-12T01:11:22.671Z,10.25
2023-10-12T01:13:56.296Z,10.24
2023-10-12T01:16:24.632Z,10.23
2023-10-12T01:18:58.033Z,10.22
2023-10-12T01:21:25.419Z,10.21
2023-10-12T01:23:52.939Z,10.20
2023-10-12T01:26:21.504Z,10.19
2023-10-12T01:28:50.848Z,10.17
2023-10-12T01:31:25.721Z,10.15
2023-10-12T01:33:56.169Z,10.13
2023-10-12T01:36:24.364Z,10.12
2023-10-12T01:38:52.690Z,10.10
2023-10-12T01:41:27.219Z,10.07
2023-10-12T01:43:55.414Z,10.05
2023-10-12T01:46:24.047Z,10.02
2023-10-12T01:48:51.407Z,10.01
2023-10-12T01:51:30.249Z,9.97
2023-10-12T01:53:57.692Z,9.93
2023-10-12T01:56:30.080Z,9.91
2023-10-12T01:58:57.366Z,9.90
2023-10-12T02:01:25.953Z,9.91
2023-10-12T02:03:57.081Z,9.88
2023-10-12T02:06:29.703Z,9.87
2023-10-12T02:09:16.665Z,9.84
2023-10-12T02:11:45.020Z,9.82
2023-10-12T02:14:14.021Z,9.80
2023-10-12T02:16:54.482Z,9.79
2023-10-12T02:19:33.167Z,9.76
2023-10-12T02:22:02.920Z,9.74
2023-10-12T02:24:30.530Z,9.73
2023-10-12T02:27:01.661Z,9.71
2023-10-12T02:29:31.148Z,9.70
2023-10-12T02:32:00.523Z,9.69
2023-10-12T02:34:29.763Z,9.68
2023-10-12T02:37:07.393Z,9.66
2023-10-12T02:39:39.889Z,9.66
2023-10-12T02:42:18.835Z,9.63
2023-10-12T02:44:54.483Z,9.62
2023-10-12T02:47:23.939Z,9.60
2023-10-12T02:50:00.636Z,9.59
2023-10-12T02:52:32.779Z,9.58
2023-10-12T02:55:08.541Z,9.58
2023-10-12T02:57:39.107Z,9.56
2023-10-12T03:00:13.741Z,9.55
2023-10-12T03:02:45.232Z,9.55
2023-10-12T03:05:19.046Z,9.55
2023-10-12T03:07:47.265Z,9.54
2023-10-12T03:10:33.134Z,9.53
2023-10-12T03:13:06.191Z,9.51
2023-10-12T03:15:43.421Z,9.49
2023-10-12T03:18:14.679Z,9.48
2023-10-12T03:21:01.841Z,9.48
2023-10-12T03:23:30.733Z,9.46
2023-10-12T03:25:58.064Z,9.45
2023-10-12T03:28:31.931Z,9.44
2023-10-12T03:31:18.491Z,9.42
2023-10-12T03:33:55.116Z,9.39
2023-10-12T03:36:27.064Z,9.38
2023-10-12T03:39:14.182Z,9.37
2023-10-12T03:41:53.036Z,9.37
2023-10-12T03:44:22.571Z,9.36
2023-10-12T03:47:55.827Z,9.36
2023-10-12T03:50:23.192Z,9.35
2023-10-12T03:52:53.628Z,9.34
2023-10-12T03:55:27.750Z,9.33
2023-10-12T03:58:08.008Z,9.33
2023-10-12T04:00:48.136Z,9.31
2023-10-12T04:03:34.905Z,9.30
2023-10-12T04:06:15.641Z,9.29
2023-10-12T04:08:55.698Z,9.29
2023-10-12T04:11:25.893Z,9.29
2023-10-12T04:13:53.256Z,9.28
2023-10-12T04:16:20.681Z,9.27
2023-10-12T04:19:04.622Z,9.27
2023-10-12T04:21:37.118Z,9.27
2023-10-12T04:24:28.114Z,9.26
2023-10-12T04:27:14.038Z,9.26
2023-10-12T04:29:41.330Z,9.26
2023-10-12T04:32:17.003Z,9.27
2023-10-12T04:34:50.322Z,9.27
2023-10-12T04:37:27.154Z,9.27
2023-10-12T04:40:17.898Z,9.27
2023-10-12T04:42:47.070Z,9.27
2023-10-12T04:45:20.476Z,9.28
2023-10-12T04:47:48.039Z,9.28
2023-10-12T04:50:44.915Z,9.30
2023-10-12T04:53:14.174Z,9.32
2023-10-12T04:55:49.064Z,9.33
2023-10-12T04:58:36.853Z,9.35
2023-10-12T05:01:23.147Z,9.38
2023-10-12T05:04:09.256Z,9.41
2023-10-12T05:07:08.787Z,9.44
2023-10-12T05:09:36.208Z,9.48
2023-10-12T05:12:03.637Z,9.52
2023-10-12T05:14:32.111Z,9.57
2023-10-12T05:16:59.571Z,9.63
2023-10-12T05:19:28.136Z,9.69
2023-10-12T05:21:56.498Z,9.77
2023-10-12T05:24:24.460Z,9.84
2023-10-12T05:27:10.528Z,9.91
2023-10-12T05:29:40.105Z,9.98
2023-10-12T05:32:07.757Z,10.05
2023-10-12T05:34:41.234Z,10.10
2023-10-12T05:37:17.730Z,10.16
2023-10-12T05:39:48.362Z,10.21
2023-10-12T05:42:16.174Z,10.27
2023-10-12T05:44:46.358Z,10.31
2023-10-12T05:47:13.637Z,10.35
2023-10-12T05:49:43.861Z,10.39
2023-10-12T05:52:11.773Z,10.42
2023-10-12T05:54:42.166Z,10.46
2023-10-12T05:57:22.905Z,10.48
2023-10-12T05:59:51.113Z,10.52
2023-10-12T06:02:19.298Z,10.55
2023-10-12T06:04:48.586Z,10.58
2023-10-12T06:07:17.202Z,10.61
2023-10-12T06:09:44.593Z,10.64
2023-10-12T06:12:15.096Z,10.68
2023-10-12T06:14:54.307Z,10.72
2023-10-12T06:17:40.723Z,10.77
2023-10-12T06:20:30.066Z,10.83
2023-10-12T06:22:57.855Z,10.89
2023-10-12T06:25:29.776Z,10.94
2023-10-12T06:27:57.168Z,11.01
2023-10-12T06:30:25.428Z,11.08
2023-10-12T06:32:52.916Z,11.16
2023-10-12T06:35:20.447Z,11.23
2023-10-12T06:37:51.063Z,11.29
2023-10-12T06:40:27.858Z,11.36
2023-10-12T06:43:11.130Z,11.46
2023-10-12T06:45:48.237Z,11.56
2023-10-12T06:48:32.147Z,11.66
2023-10-12T06:51:08.320Z,11.77
2023-10-12T06:53:37.445Z,11.89
2023-10-12T06:56:21.301Z,12.01
2023-10-12T06:59:14.494Z,12.15
2023-10-12T07:01:47.756Z,12.29
2023-10-12T07:04:16.337Z,12.41
2023-10-12T07:07:19.756Z,12.55
2023-10-12T07:09:49.773Z,12.70
2023-10-12T07:12:20.661Z,12.82
2023-10-12T07:14:48.736Z,12.95
2023-10-12T07:17:16.721Z,13.07
2023-10-12T07:19:50.988Z,13.20
2023-10-12T07:22:20.097Z,13.35
2023-10-12T07:24:54.261Z,13.47
2023-10-12T07:27:23.499Z,13.62
2023-10-12T07:30:26.383Z,13.78
2023-10-12T07:32:57.110Z,13.95
2023-10-12T07:35:36.007Z,14.09
2023-10-12T07:38:15.495Z,14.22
2023-10-12T07:40:58.141Z,14.34
2023-10-12T07:43:25.929Z,14.46
2023-10-12T07:45:53.971Z,14.56
2023-10-12T07:48:42.360Z,14.64
2023-10-12T07:51:17.067Z,14.74
2023-10-12T07:53:45.601Z,14.86
2023-10-12T07:56:19.122Z,14.96
2023-10-12T07:58:51.737Z,15.08
2023-10-12T08:01:28.187Z,15.20
2023-10-12T08:04:00.171Z,15.31
2023-10-12T08:06:37.197Z,15.41
2023-10-12T08:09:27.588Z,15.52
2023-10-12T08:11:55.230Z,15.62
2023-10-12T08:14:22.827Z,15.67
2023-10-12T08:17:08.966Z,15.70
2023-10-12T08:19:56.776Z,15.71
2023-10-12T08:22:30.910Z,15.73
2023-10-12T08:25:00.633Z,15.74
2023-10-12T08:27:28.488Z,15.75
2023-10-12T08:29:55.774Z,15.80
2023-10-12T08:32:25.920Z,15.87
2023-10-12T08:35:02.316Z,15.95
2023-10-12T08:37:37.455Z,16.05
2023-10-12T08:40:21.310Z,16.16
2023-10-12T08:42:59.889Z,16.27
2023-10-12T08:45:31.236Z,16.40
2023-10-12T08:48:05.555Z,16.50
2023-10-12T08:51:00.313Z,16.61
2023-10-12T08:53:27.929Z,16.73
2023-10-12T08:55:55.702Z,16.82
2023-10-12T08:58:40.424Z,16.91
2023-10-12T09:01:11.807Z,17.01
2023-10-12T09:03:45.819Z,17.10
2023-10-12T09:06:51.896Z,17.20
2023-10-12T09:09:38.214Z,17.30
2023-10-12T09:12:12.831Z,17.41
2023-10-12T09:14:44.702Z,17.51
2023-10-12T09:17:42.401Z,17.62
2023-10-12T09:20:30.542Z,17.75
2023-10-12T09:23:04.779Z,17.86
2023-10-12T09:26:04.029Z,17.97
2023-10-12T09:28:43.618Z,18.09
2023-10-12T09:31:15.496Z,18.20
2023-10-12T09:33:49.898Z,18.31
2023-10-12T09:36:20.506Z,18.42
2023-10-12T09:38:47.935Z,18.50
2023-10-12T09:41:20.802Z,18.60
2023-10-12T09:43:48.469Z,18.68
2023-10-12T09:46:18.503Z,18.73
2023-10-12T09:48:48.535Z,18.78
2023-10-12T09:51:18.713Z,18.84
2023-10-12T09:53:59.165Z,18.92
2023-10-12T09:56:34.928Z,19.01
2023-10-12T09:59:16.945Z,19.09
2023-10-12T10:01:44.529Z,19.17
2023-10-12T10:04:27.339Z,19.22
2023-10-12T10:07:12.695Z,19.27
2023-10-12T10:09:40.020Z,19.33
2023-10-12T10:12:09.911Z,19.38
2023-10-12T10:14:37.912Z,19.44
2023-10-12T10:17:11.297Z,19.48
2023-10-12T10:19:39.292Z,19.52
2023-10-12T10:22:06.781Z,19.58
2023-10-12T10:24:47.629Z,19.67
2023-10-12T10:27:15.451Z,19.75
2023-10-12T10:29:54.469Z,19.82
2023-10-12T10:32:38.302Z,19.89
2023-10-12T10:35:24.684Z,19.97
2023-10-12T10:38:01.038Z,20.03
2023-10-12T10:40:45.526Z,20.10
2023-10-12T10:43:17.111Z,20.16
2023-10-12T10:45:55.437Z,20.21
2023-10-12T10:48:58.277Z,20.26
2023-10-12T10:51:33.722Z,20.29
2023-10-12T10:54:01.109Z,20.30
2023-10-12T10:56:36.867Z,20.31
2023-10-12T10:59:14.535Z,20.32
2023-10-12T11:01:50.237Z,20.36
2023-10-12T11:04:41.927Z,20.38
2023-10-12T11:07:13.484Z,20.42
2023-10-12T11:10:06.983Z,20.43
2023-10-12T11:12:37.879Z,20.45
2023-10-12T11:15:10.739Z,20.47
2023-10-12T11:17:43.041Z,20.50
2023-10-12T11:20:37.047Z,20.55
2023-10-12T11:23:08.987Z,20.60
2023-10-12T11:25:41.189Z,20.64
2023-10-12T11:28:22.237Z,20.67
2023-10-12T11:30:53.533Z,20.71
2023-10-12T11:33:25.391Z,20.75
2023-10-12T11:35:55.262Z,20.77
2023-10-12T11:38:24.723Z,20.81
2023-10-12T11:40:57.068Z,20.85
2023-10-12T11:43:30.753Z,20.89
2023-10-12T11:46:05.506Z,20.94
2023-10-12T11:48:33.036Z,20.98
2023-10-12T11:51:12.318Z,21.01
2023-10-12T11:53:40.436Z,21.06
2023-10-12T11:56:14.387Z,21.09
2023-10-12T11:58:42.410Z,21.11
2023-10-12T12:01:11.382Z,21.11
2023-10-12T12:03:41.561Z,21.09
2023-10-12T12:06:19.459Z,21.07
2023-10-12T12:08:47.547Z,21.04
2023-10-12T12:11:20.348Z,21.02
2023-10-12T12:13:53.422Z,20.98
2023-10-12T12:16:23.931Z,20.94
2023-10-12T12:18:53.349Z,20.91
2023-10-12T12:21:30.540Z,20.88
2023-10-12T12:24:02.278Z,20.85
2023-10-12T12:26:34.961Z,20.83
2023-10-12T12:29:05.634Z,20.82
2023-10-12T12:31:33.984Z,20.81
2023-10-12T12:34:07.743Z,20.81
2023-10-12T12:36:35.496Z,20.81
2023-10-12T12:39:10.432Z,20.81
2023-10-12T12:41:37.879Z,20.82
2023-10-12T12:44:09.612Z,20.82
2023-10-12T12:46:38.630Z,20.83
2023-10-12T12:49:08.156Z,20.83
2023-10-12T12:51:36.202Z,20.83
2023-10-12T12:54:03.832Z,20.82
2023-10-12T12:56:31.125Z,20.80
2023-10-12T12:58:58.494Z,20.78
2023-10-12T13:01:26.546Z,20.77
2023-10-12T13:03:56.618Z,20.74
2023-10-12T13:06:24.994Z,20.73
2023-10-12T13:08:52.503Z,20.71
2023-10-12T13:11:20.340Z,20.69
2023-10-12T13:13:49.220Z,20.68
2023-10-12T13:16:17.447Z,20.66
2023-10-12T13:18:47.684Z,20.63
2023-10-12T13:21:16.078Z,20.62
2023-10-12T13:23:44.373Z,20.60
2023-10-12T13:26:14.447Z,20.60
2023-10-12T13:28:43.643Z,20.59
2023-10-12T13:31:14.601Z,20.59
2023-10-12T13:33:43.785Z,20.58
2023-10-12T13:36:11.449Z,20.57
2023-10-12T13:38:39.240Z,20.54
2023-10-12T13:41:07.076Z,20.52
2023-10-12T13:43:36.395Z,20.50
2023-10-12T13:46:09.049Z,20.47
2023-10-12T13:48:40.470Z,20.45
2023-10-12T13:51:25.430Z,20.42
2023-10-12T13:53:53.123Z,20.37
2023-10-12T13:56:25.459Z,20.35
2023-10-12T13:59:02.104Z,20.31
2023-10-12T14:01:34.825Z,20.27
2023-10-12T14:04:02.855Z,20.23
2023-10-12T14:06:32.383Z,20.18
2023-10-12T14:09:00.248Z,20.13
2023-10-12T14:11:27.636Z,20.09
2023-10-12T14:13:54.957Z,20.06
2023-10-12T14:16:22.453Z,20.01
2023-10-12T14:18:53.005Z,19.98
2023-10-12T14:21:20.830Z,19.93
2023-10-12T14:23:50.298Z,19.89
2023-10-12T14:26:23.972Z,19.85
2023-10-12T14:28:52.703Z,19.82
2023-10-12T14:31:24.533Z,19.78
2023-10-12T14:33:53.726Z,19.74
2023-10-12T14:36:21.523Z,19.71
2023-10-12T14:38:49.112Z,19.66
2023-10-12T14:41:18.869Z,19.61
2023-10-12T14:43:48.486Z,19.57
2023-10-12T14:46:20.297Z,19.52
2023-10-12T14:48:52.840Z,19.48
2023-10-12T14:51:27.093Z,19.43
2023-10-12T14:53:54.888Z,19.39
2023-10-12T14:56:28.797Z,19.35
2023-10-12T14:58:59.701Z,19.30
2023-10-12T15:01:30.892Z,19.25
2023-10-12T15:03:58.843Z,19.21
2023-10-12T15:06:27.000Z,19.18
2023-10-12T15:08:54.711Z,19.15
2023-10-12T15:11:22.128Z,19.11
2023-10-12T15:13:50.785Z,19.08
2023-10-12T15:16:19.704Z,19.04
2023-10-12T15:18:47.482Z,19.00
2023-10-12T15:23:45.366Z,18.92
2023-10-12T15:26:14.700Z,18.88
2023-10-12T15:28:48.322Z,18.85
2023-10-12T15:31:18.172Z,18.81
2023-10-12T15:33:45.811Z,18.77
2023-10-12T15:36:18.197Z,18.74
2023-10-12T15:38:45.529Z,18.69
2023-10-12T15:41:12.865Z,18.64
2023-10-12T15:43:40.621Z,18.60
2023-10-12T15:46:12.602Z,18.55
2023-10-12T15:48:43.458Z,18.50
2023-10-12T15:51:21.765Z,18.45
2023-10-12T15:53:50.596Z,18.41
2023-10-12T15:56:19.045Z,18.37
2023-10-12T15:58:48.707Z,18.34
2023-10-12T16:01:16.430Z,18.30
2023-10-12T16:04:30.655Z,18.26
2023-10-12T16:06:58.575Z,18.21
2023-10-12T16:09:31.837Z,18.18
2023-10-12T16:12:00.144Z,18.13
2023-10-12T16:14:27.460Z,18.09
2023-10-12T16:16:55.121Z,18.06
2023-10-12T16:19:23.123Z,18.02
2023-10-12T16:21:52.017Z,17.99
2023-10-12T16:24:19.507Z,17.97
2023-10-12T16:26:48.098Z,17.93
2023-10-12T16:29:15.448Z,17.90
2023-10-12T16:31:45.026Z,17.86
2023-10-12T16:34:14.115Z,17.83
2023-10-12T16:36:41.677Z,17.79
2023-10-12T16:39:12.106Z,17.77
2023-10-12T16:41:40.636Z,17.74
2023-10-12T16:44:08.227Z,17.71
2023-10-12T16:46:36.265Z,17.67
2023-10-12T16:49:03.737Z,17.63
2023-10-12T16:51:31.532Z,17.58
2023-10-12T16:53:59.109Z,17.54
2023-10-12T16:56:26.412Z,17.51
2023-10-12T16:58:53.752Z,17.47
2023-10-12T17:01:21.194Z,17.45
2023-10-12T17:03:49.223Z,17.41
2023-10-12T17:06:17.897Z,17.37
2023-10-12T17:08:45.328Z,17.33
2023-10-12T17:11:13.227Z,17.30
2023-10-12T17:13:40.710Z,17.26
2023-10-12T17:16:08.306Z,17.23
2023-10-12T17:18:36.499Z,17.20
2023-10-12T17:21:04.118Z,17.17
2023-10-12T17:23:31.652Z,17.15
2023-10-12T17:26:00.074Z,17.12
2023-10-12T17:28:32.031Z,17.10
2023-10-12T17:31:09.650Z,17.07
2023-10-12T17:33:37.590Z,17.04
2023-10-12T17:36:12.718Z,17.02
2023-10-12T17:38:40.309Z,17.00
2023-10-12T17:41:07.827Z,16.97
2023-10-12T17:43:35.224Z,16.95
2023-10-12T17:46:02.791Z,16.92
2023-10-12T17:48:30.446Z,16.90
2023-10-12T17:50:59.170Z,16.88
2023-10-12T17:53:28.257Z,16.87
2023-10-12T17:55:56.540Z,16.85
2023-10-12T17:58:25.049Z,16.84
2023-10-12T18:00:52.937Z,16.82
2023-10-12T18:03:20.699Z,16.80
2023-10-12T18:05:57.415Z,16.78
2023-10-12T18:08:26.796Z,16.76
2023-10-12T18:11:07.214Z,16.74
2023-10-12T18:13:35.022Z,16.72
2023-10-12T18:16:04.726Z,16.70
2023-10-12T18:18:32.221Z,16.68
2023-10-12T18:20:59.641Z,16.67
2023-10-12T18:23:27.953Z,16.66
2023-10-12T18:25:58.357Z,16.64
2023-10-12T18:28:26.861Z,16.63
2023-10-12T18:31:02.066Z,16.63
2023-10-12T18:33:33.649Z,16.62
2023-10-12T18:36:01.790Z,16.61
2023-10-12T18:38:29.360Z,16.61
2023-10-12T18:41:07.184Z,16.60
2023-10-12T18:43:35.421Z,16.60
2023-10-12T18:46:04.829Z,16.60
2023-10-12T18:48:32.833Z,16.59
2023-10-12T18:51:06.261Z,16.58
2023-10-12T18:53:33.786Z,16.58
2023-10-12T18:56:05.671Z,16.58
2023-10-12T18:58:35.906Z,16.57
2023-10-12T19:01:04.569Z,16.57
2023-10-12T19:03:32.831Z,16.56
2023-10-12T19:06:04.748Z,16.55
2023-10-12T19:08:32.402Z,16.55
2023-10-12T19:11:04.525Z,16.55
2023-10-12T19:13:31.896Z,16.54
2023-10-12T19:15:59.275Z,16.55
2023-10-12T19:18:31.185Z,16.54
2023-10-12T19:20:58.926Z,16.53
2023-10-12T19:23:26.560Z,16.53
2023-10-12T19:25:57.213Z,16.52
2023-10-12T19:28:28.213Z,16.52
2023-10-12T19:30:57.553Z,16.52
2023-10-12T19:33:25.134Z,16.51
2023-10-12T19:35:52.796Z,16.52
2023-10-12T19:38:23.105Z,16.52
2023-10-12T19:40:51.823Z,16.53
2023-10-12T19:43:19.880Z,16.53
2023-10-12T19:45:47.385Z,16.52
2023-10-12T19:48:16.698Z,16.52
2023-10-12T19:50:44.445Z,16.53
2023-10-12T19:53:12.851Z,16.52
2023-10-12T19:55:40.265Z,16.51
2023-10-12T19:58:11.148Z,16.52
2023-10-12T20:00:41.200Z,16.52
2023-10-12T20:03:19.091Z,16.53
2023-10-12T20:05:49.363Z,16.53
2023-10-12T20:08:18.164Z,16.53
2023-10-12T20:10:47.240Z,16.54
2023-10-12T20:13:14.681Z,16.53
2023-10-12T20:15:42.050Z,16.54
2023-10-12T20:18:09.550Z,16.54
2023-10-12T20:20:43.483Z,16.55
2023-10-12T20:23:15.292Z,16.54
2023-10-12T20:25:45.829Z,16.54
2023-10-12T20:28:13.601Z,16.54
2023-10-12T20:30:46.535Z,16.53
2023-10-12T20:33:15.195Z,16.53
2023-10-12T20:35:42.576Z,16.51
2023-10-12T20:38:12.688Z,16.51
2023-10-12T20:40:40.929Z,16.51
2023-10-12T20:43:16.808Z,16.51
2023-10-12T20:45:59.168Z,16.51
2023-10-12T20:48:27.533Z,16.50
2023-10-12T20:50:56.368Z,16.47
2023-10-12T20:53:24.692Z,16.46
2023-10-12T20:55:55.997Z,16.45
2023-10-12T20:58:24.863Z,16.45
2023-10-12T21:00:58.631Z,16.44
2023-10-12T21:03:37.650Z,16.43
2023-10-12T21:06:08.729Z,16.43
2023-10-12T21:08:44.059Z,16.42
2023-10-12T21:11:23.205Z,16.41
2023-10-12T21:13:52.947Z,16.39
2023-10-12T21:16:23.184Z,16.38
2023-10-12T21:18:55.394Z,16.37
2023-10-12T21:21:25.871Z,16.36
2023-10-12T21:23:53.500Z,16.34
2023-10-12T21:26:30.678Z,16.32
2023-10-12T21:29:01.560Z,16.31
2023-10-12T21:31:29.781Z,16.29
2023-10-12T21:34:01.624Z,16.27
2023-10-12T21:36:33.072Z,16.25
2023-10-12T21:39:00.381Z,16.23
2023-10-12T21:41:34.772Z,16.21
2023-10-12T21:44:05.493Z,16.20
2023-10-12T21:46:33.834Z,16.18
2023-10-12T21:49:01.382Z,16.16
2023-10-12T21:51:29.629Z,16.15
2023-10-12T21:53:58.583Z,16.14
2023-10-12T21:56:26.402Z,16.12
2023-10-12T21:58:53.760Z,16.10
2023-10-12T22:02:03.722Z,16.09
2023-10-12T22:04:36.247Z,16.07
2023-10-12T22:07:08.200Z,16.06
2023-10-12T22:09:45.709Z,16.05
2023-10-12T22:12:14.867Z,16.03
2023-10-12T22:14:51.683Z,16.02
2023-10-12T22:17:19.406Z,16.01
2023-10-12T22:19:47.408Z,16.01
2023-10-12T22:22:15.310Z,16.00
2023-10-12T22:24:42.730Z,15.99
2023-10-12T22:27:10.083Z,15.97
2023-10-12T22:29:37.423Z,15.95
2023-10-12T22:32:05.028Z,15.94
2023-10-12T22:34:32.498Z,15.91
2023-10-12T22:36:59.855Z,15.89
2023-10-12T22:39:33.350Z,15.90
2023-10-12T22:42:02.977Z,15.89
2023-10-12T22:44:31.086Z,15.89
2023-10-12T22:46:58.532Z,15.88
2023-10-12T22:49:26.524Z,15.87
2023-10-12T22:51:53.861Z,15.85
2023-10-12T22:54:21.249Z,15.81
2023-10-12T22:56:54.166Z,15.77
2023-10-12T22:59:21.892Z,15.73
2023-10-12T23:01:49.655Z,15.69
2023-10-12T23:04:17.088Z,15.65
2023-10-12T23:06:44.468Z,15.61
2023-10-12T23:09:18.490Z,15.57
2023-10-12T23:11:56.520Z,15.53
2023-10-12T23:14:30.655Z,15.51
2023-10-12T23:16:59.454Z,15.49
2023-10-12T23:19:59.663Z,15.49
2023-10-12T23:22:27.225Z,15.48
2023-10-12T23:25:07.244Z,15.46
2023-10-12T23:27:34.877Z,15.42
2023-10-12T23:30:12.713Z,15.38
2023-10-12T23:32:41.626Z,15.33
2023-10-12T23:35:18.567Z,15.28
2023-10-12T23:38:12.999Z,15.22
2023-10-12T23:40:57.006Z,15.15
2023-10-12T23:43:26.107Z,15.12
2023-10-12T23:45:59.935Z,15.08
2023-10-12T23:48:27.533Z,15.06
2023-10-12T23:51:04.792Z,15.05
2023-10-12T23:53:40.138Z,15.02
2023-10-12T23:56:15.034Z,15.00
2023-10-12T23:58:42.866Z,15.00
